createdAt,value
2019-06-26T00:01:44.084Z,24.90
2019-06-26T00:04:49.329Z,24.86
2019-06-26T00:07:55.588Z,24.79
2019-06-26T00:11:02.423Z,24.75
2019-06-26T00:14:07.726Z,24.74
2019-06-26T00:17:12.902Z,24.69
2019-06-26T00:20:18.580Z,24.65
2019-06-26T00:23:23.739Z,24.66
2019-06-26T00:26:28.984Z,24.85
2019-06-26T00:29:34.214Z,24.80
2019-06-26T00:32:39.463Z,24.92
2019-06-26T00:35:50.943Z,24.94
2019-06-26T00:38:56.117Z,24.98
2019-06-26T00:42:01.398Z,25.17
2019-06-26T00:45:08.411Z,25.13
2019-06-26T00:48:15.445Z,25.04
2019-06-26T00:51:20.647Z,25.19
2019-06-26T00:54:25.863Z,25.12
2019-06-26T00:57:31.137Z,25.04
2019-06-26T01:00:41.992Z,24.87
2019-06-26T01:03:49.675Z,24.87
2019-06-26T01:06:54.893Z,24.85
2019-06-26T01:10:00.060Z,24.95
2019-06-26T01:13:05.940Z,24.98
2019-06-26T01:16:12.443Z,24.93
2019-06-26T01:19:17.993Z,24.89
2019-06-26T01:22:23.199Z,24.70
2019-06-26T01:25:30.280Z,24.73
2019-06-26T01:28:37.682Z,24.78
2019-06-26T01:31:42.853Z,24.93
2019-06-26T01:34:48.143Z,24.93
2019-06-26T01:37:53.340Z,24.92
2019-06-26T01:40:58.516Z,24.77
2019-06-26T01:44:14.239Z,24.74
2019-06-26T01:47:10.898Z,24.88
2019-06-26T01:50:16.201Z,24.74
2019-06-26T01:53:22.805Z,24.68
2019-06-26T01:56:28.026Z,24.65
2019-06-26T01:59:34.012Z,24.97
2019-06-26T02:02:39.186Z,24.75
2019-06-26T02:05:44.326Z,24.70
2019-06-26T02:08:49.505Z,24.71
2019-06-26T02:11:54.651Z,24.70
2019-06-26T02:14:59.902Z,24.66
2019-06-26T02:18:06.838Z,24.82
2019-06-26T02:21:12.058Z,24.59
2019-06-26T02:24:17.257Z,24.70
2019-06-26T02:27:22.573Z,24.55
2019-06-26T02:30:27.782Z,24.54
2019-06-26T02:33:33.029Z,24.36
2019-06-26T02:36:38.289Z,24.51
2019-06-26T02:39:43.598Z,24.77
2019-06-26T02:42:48.764Z,24.65
2019-06-26T02:45:53.940Z,24.41
2019-06-26T02:48:59.094Z,24.27
2019-06-26T02:52:04.249Z,24.50
2019-06-26T02:55:09.387Z,24.27
2019-06-26T02:58:14.643Z,24.18
2019-06-26T03:01:19.818Z,24.36
2019-06-26T03:04:25.057Z,24.32
2019-06-26T03:07:30.263Z,24.13
2019-06-26T03:10:35.433Z,24.05
2019-06-26T03:13:40.626Z,24.10
2019-06-26T03:16:45.779Z,23.98
2019-06-26T03:19:50.968Z,23.97
2019-06-26T03:22:56.149Z,23.87
2019-06-26T03:26:01.326Z,23.91
2019-06-26T03:29:06.487Z,24.12
2019-06-26T03:32:11.708Z,24.09
2019-06-26T03:35:17.032Z,24.24
2019-06-26T03:38:22.259Z,24.31
2019-06-26T03:41:27.459Z,24.38
2019-06-26T03:44:32.761Z,24.47
2019-06-26T03:47:37.939Z,24.53
2019-06-26T03:50:43.156Z,24.70
2019-06-26T03:53:48.419Z,24.88
2019-06-26T03:56:53.637Z,24.90
2019-06-26T03:59:58.863Z,25.19
2019-06-26T04:03:04.108Z,25.47
2019-06-26T04:06:09.377Z,26.20
2019-06-26T04:09:14.608Z,26.30
2019-06-26T04:12:19.794Z,26.51
2019-06-26T04:15:37.588Z,27.01
2019-06-26T04:18:31.837Z,27.50
2019-06-26T04:21:37.008Z,27.37
2019-06-26T04:24:42.204Z,28.11
2019-06-26T04:27:47.487Z,28.60
2019-06-26T04:30:53.532Z,28.92
2019-06-26T04:33:58.699Z,28.64
2019-06-26T04:37:03.902Z,28.97
2019-06-26T04:40:09.254Z,29.31
2019-06-26T04:43:14.459Z,29.62
2019-06-26T04:46:19.927Z,30.05
2019-06-26T04:49:26.108Z,30.57
2019-06-26T04:52:31.415Z,30.17
2019-06-26T04:55:36.662Z,30.83
2019-06-26T04:58:41.935Z,31.12
2019-06-26T05:01:49.139Z,31.49
2019-06-26T05:04:54.303Z,31.16
2019-06-26T05:07:59.467Z,31.83
2019-06-26T05:11:04.710Z,31.84
2019-06-26T05:14:10.024Z,31.95
2019-06-26T05:17:15.299Z,31.70
2019-06-26T05:20:20.666Z,31.64
2019-06-26T05:23:25.912Z,31.90
2019-06-26T05:26:31.115Z,31.87
2019-06-26T05:29:36.267Z,31.87
2019-06-26T05:32:41.452Z,33.57
2019-06-26T05:35:46.928Z,32.86
2019-06-26T05:38:52.188Z,32.76
2019-06-26T05:41:57.438Z,33.75
2019-06-26T05:45:02.960Z,33.67
2019-06-26T05:48:08.213Z,33.83
2019-06-26T05:51:13.395Z,33.95
2019-06-26T05:54:18.547Z,34.69
2019-06-26T05:57:23.782Z,34.70
2019-06-26T06:00:28.928Z,35.28
2019-06-26T06:03:34.177Z,34.92
2019-06-26T06:06:42.154Z,34.75
2019-06-26T06:09:46.250Z,34.54
2019-06-26T06:12:51.500Z,34.63
2019-06-26T06:15:56.755Z,34.93
2019-06-26T06:19:01.920Z,33.63
2019-06-26T06:22:07.165Z,35.26
2019-06-26T06:25:12.760Z,34.80
2019-06-26T06:28:18.061Z,35.52
2019-06-26T06:31:23.223Z,35.10
2019-06-26T06:34:28.479Z,35.19
2019-06-26T06:37:34.676Z,35.98
2019-06-26T06:40:39.916Z,35.90
2019-06-26T06:43:46.188Z,35.24
2019-06-26T06:47:03.275Z,34.83
2019-06-26T06:49:58.155Z,35.40
2019-06-26T06:53:03.354Z,36.13
2019-06-26T06:56:08.520Z,35.20
2019-06-26T06:59:13.693Z,34.14
2019-06-26T07:02:18.861Z,33.81
2019-06-26T07:05:24.058Z,32.10
2019-06-26T07:08:29.263Z,32.39
2019-06-26T07:11:34.401Z,32.61
2019-06-26T07:14:39.581Z,31.97
2019-06-26T07:17:44.920Z,32.94
2019-06-26T07:20:50.164Z,33.36
2019-06-26T07:23:55.380Z,34.08
2019-06-26T07:27:00.677Z,32.96
2019-06-26T07:30:06.310Z,31.97
2019-06-26T07:33:11.535Z,31.97
2019-06-26T07:36:16.758Z,32.04
2019-06-26T07:39:23.043Z,32.64
2019-06-26T07:42:28.245Z,33.04
2019-06-26T07:45:33.440Z,33.01
2019-06-26T07:48:40.165Z,32.39
2019-06-26T07:51:47.360Z,32.46
2019-06-26T07:54:53.611Z,32.67
2019-06-26T07:57:59.007Z,32.35
2019-06-26T08:01:04.236Z,32.48
2019-06-26T08:04:09.398Z,31.95
2019-06-26T08:07:14.813Z,32.26
2019-06-26T08:10:20.281Z,31.49
2019-06-26T08:13:25.465Z,30.68
2019-06-26T08:16:34.444Z,30.82
2019-06-26T08:19:37.516Z,31.23
2019-06-26T08:22:43.051Z,31.44
2019-06-26T08:25:48.359Z,31.54
2019-06-26T08:28:53.570Z,31.66
2019-06-26T08:31:58.746Z,31.70
2019-06-26T08:35:03.993Z,31.93
2019-06-26T08:38:12.712Z,30.97
2019-06-26T08:41:16.029Z,30.60
2019-06-26T08:44:21.182Z,31.12
2019-06-26T08:47:26.290Z,30.96
2019-06-26T08:50:31.460Z,31.12
2019-06-26T08:53:36.621Z,31.24
2019-06-26T08:56:41.796Z,31.52
2019-06-26T08:59:46.940Z,31.61
2019-06-26T09:02:52.096Z,31.29
2019-06-26T09:05:57.238Z,30.95
2019-06-26T09:09:02.461Z,31.13
2019-06-26T09:12:08.589Z,31.69
2019-06-26T09:15:13.761Z,31.68
2019-06-26T09:18:34.273Z,31.55
2019-06-26T09:21:30.916Z,31.34
2019-06-26T09:24:33.737Z,31.55
2019-06-26T09:27:38.891Z,31.38
2019-06-26T09:30:44.087Z,31.18
2019-06-26T09:33:49.232Z,31.50
2019-06-26T09:36:54.393Z,31.59
2019-06-26T09:39:59.565Z,31.48
2019-06-26T09:43:04.807Z,31.10
2019-06-26T09:46:09.969Z,31.37
2019-06-26T09:49:15.168Z,31.57
2019-06-26T09:52:20.410Z,31.49
2019-06-26T09:55:25.680Z,31.41
2019-06-26T09:58:30.944Z,31.22
2019-06-26T10:01:36.146Z,31.28
2019-06-26T10:04:41.371Z,31.23
2019-06-26T10:07:46.546Z,31.22
2019-06-26T10:10:51.782Z,31.39
2019-06-26T10:13:56.920Z,31.65
2019-06-26T10:17:03.581Z,31.04
2019-06-26T10:20:09.384Z,31.41
2019-06-26T10:23:14.700Z,31.46
2019-06-26T10:26:19.864Z,31.60
2019-06-26T10:29:26.680Z,31.51
2019-06-26T10:32:33.974Z,31.84
2019-06-26T10:35:39.122Z,31.70
2019-06-26T10:38:44.359Z,31.61
2019-06-26T10:41:49.686Z,31.81
2019-06-26T10:44:54.880Z,31.70
2019-06-26T10:48:00.004Z,31.85
2019-06-26T10:51:05.180Z,31.87
2019-06-26T10:54:10.410Z,31.63
2019-06-26T10:57:16.651Z,31.76
2019-06-26T11:00:22.088Z,31.53
2019-06-26T11:03:27.266Z,31.71
2019-06-26T11:06:32.408Z,31.82
2019-06-26T11:09:37.595Z,31.60
2019-06-26T11:12:42.878Z,31.56
2019-06-26T11:15:48.115Z,31.55
2019-06-26T11:18:53.323Z,31.45
2019-06-26T11:21:58.665Z,31.42
2019-06-26T11:25:03.872Z,31.51
2019-06-26T11:28:09.011Z,31.71
2019-06-26T11:31:14.170Z,31.48
2019-06-26T11:34:19.413Z,31.63
2019-06-26T11:37:24.589Z,31.50
2019-06-26T11:40:29.793Z,31.50
2019-06-26T11:43:35.132Z,31.46
2019-06-26T11:46:40.319Z,31.35
2019-06-26T11:49:59.362Z,31.39
2019-06-26T11:52:53.702Z,31.40
2019-06-26T11:55:58.967Z,31.33
2019-06-26T11:59:04.300Z,31.38
2019-06-26T12:02:09.535Z,31.39
2019-06-26T12:05:15.716Z,31.28
2019-06-26T12:08:20.925Z,31.20
2019-06-26T12:11:26.155Z,31.43
2019-06-26T12:14:32.108Z,31.43
2019-06-26T12:17:37.386Z,31.45
2019-06-26T12:20:42.578Z,31.54
2019-06-26T12:23:47.750Z,31.58
2019-06-26T12:26:52.961Z,31.50
2019-06-26T12:29:58.132Z,31.19
2019-06-26T12:33:03.912Z,31.63
2019-06-26T12:36:09.507Z,31.69
2019-06-26T12:39:14.762Z,31.56
2019-06-26T12:42:19.960Z,31.75
2019-06-26T12:45:25.284Z,31.74
2019-06-26T12:48:30.516Z,31.71
2019-06-26T12:51:36.897Z,31.64
2019-06-26T12:54:43.884Z,31.56
2019-06-26T12:57:49.072Z,31.54
2019-06-26T13:00:54.247Z,31.67
2019-06-26T13:03:59.455Z,31.52
2019-06-26T13:07:04.700Z,31.38
2019-06-26T13:10:10.068Z,31.55
2019-06-26T13:13:15.283Z,31.50
2019-06-26T13:16:20.513Z,31.43
2019-06-26T13:19:25.742Z,31.31
2019-06-26T13:22:30.942Z,31.43
2019-06-26T13:25:36.106Z,31.25
2019-06-26T13:28:41.286Z,31.04
2019-06-26T13:31:46.413Z,31.24
2019-06-26T13:34:51.714Z,31.25
2019-06-26T13:37:56.958Z,31.19
2019-06-26T13:41:02.137Z,31.04
2019-06-26T13:44:07.301Z,31.14
2019-06-26T13:47:12.485Z,31.18
2019-06-26T13:50:18.063Z,31.11
2019-06-26T13:53:23.221Z,31.22
2019-06-26T13:56:28.426Z,31.26
2019-06-26T13:59:33.608Z,31.22
2019-06-26T14:02:38.789Z,31.14
2019-06-26T14:05:44.041Z,30.85
2019-06-26T14:08:49.242Z,30.91
2019-06-26T14:11:54.541Z,30.68
2019-06-26T14:15:00.190Z,30.26
2019-06-26T14:18:05.567Z,30.02
2019-06-26T14:21:24.572Z,30.12
2019-06-26T14:24:17.643Z,30.21
2019-06-26T14:27:22.860Z,30.32
2019-06-26T14:30:28.248Z,30.36
2019-06-26T14:33:34.531Z,30.31
2019-06-26T14:36:39.789Z,30.38
2019-06-26T14:39:46.112Z,30.50
2019-06-26T14:42:51.426Z,30.49
2019-06-26T14:45:58.269Z,30.44
2019-06-26T14:49:03.767Z,30.61
2019-06-26T14:52:14.231Z,30.35
2019-06-26T14:55:22.064Z,30.02
2019-06-26T14:58:27.909Z,30.22
2019-06-26T15:01:33.189Z,30.08
2019-06-26T15:04:38.943Z,30.03
2019-06-26T15:07:44.119Z,30.00
2019-06-26T15:10:49.326Z,29.93
2019-06-26T15:13:55.122Z,29.80
2019-06-26T15:17:03.671Z,29.81
2019-06-26T15:20:09.021Z,29.85
2019-06-26T15:23:23.426Z,29.77
2019-06-26T15:26:32.482Z,29.61
2019-06-26T15:29:37.715Z,29.66
2019-06-26T15:32:43.496Z,29.63
2019-06-26T15:35:49.713Z,29.45
2019-06-26T15:38:59.024Z,29.36
2019-06-26T15:42:05.468Z,29.26
2019-06-26T15:45:10.687Z,29.45
2019-06-26T15:48:15.970Z,29.42
2019-06-26T15:51:21.162Z,29.56
2019-06-26T15:54:26.393Z,29.38
2019-06-26T15:57:34.402Z,29.35
2019-06-26T16:00:39.769Z,29.28
2019-06-26T16:03:45.071Z,29.34
2019-06-26T16:06:50.623Z,29.22
2019-06-26T16:09:55.863Z,29.15
2019-06-26T16:13:01.057Z,28.99
2019-06-26T16:16:06.599Z,28.76
2019-06-26T16:19:17.157Z,28.56
2019-06-26T16:22:32.083Z,28.48
2019-06-26T16:25:31.158Z,28.78
2019-06-26T16:28:36.498Z,28.37
2019-06-26T16:31:42.913Z,28.24
2019-06-26T16:34:50.009Z,28.20
2019-06-26T16:37:55.344Z,28.17
2019-06-26T16:41:00.507Z,28.02
2019-06-26T16:44:06.888Z,28.00
2019-06-26T16:47:13.723Z,27.85
2019-06-26T16:50:23.868Z,27.90
2019-06-26T16:53:29.622Z,27.90
2019-06-26T16:56:34.957Z,27.83
2019-06-26T16:59:43.677Z,27.91
2019-06-26T17:02:48.939Z,27.73
2019-06-26T17:05:56.344Z,27.64
2019-06-26T17:09:01.693Z,27.38
2019-06-26T17:12:08.519Z,27.50
2019-06-26T17:15:13.978Z,27.30
2019-06-26T17:18:19.459Z,27.19
2019-06-26T17:21:25.033Z,27.20
2019-06-26T17:24:30.774Z,27.01
2019-06-26T17:27:35.973Z,26.94
2019-06-26T17:30:41.273Z,26.46
2019-06-26T17:33:46.543Z,26.20
2019-06-26T17:36:51.782Z,26.17
2019-06-26T17:39:58.084Z,25.94
2019-06-26T17:43:12.336Z,25.91
2019-06-26T17:46:13.521Z,25.99
2019-06-26T17:49:19.613Z,26.19
2019-06-26T17:52:24.879Z,26.22
2019-06-26T17:55:30.062Z,26.04
2019-06-26T17:58:35.282Z,25.99
2019-06-26T18:01:40.473Z,25.90
2019-06-26T18:04:45.739Z,25.87
2019-06-26T18:07:51.871Z,25.50
2019-06-26T18:10:57.110Z,25.40
2019-06-26T18:14:03.096Z,25.05
2019-06-26T18:17:21.622Z,24.85
2019-06-26T18:20:16.862Z,24.73
2019-06-26T18:23:37.179Z,24.59
2019-06-26T18:26:31.564Z,24.39
2019-06-26T18:29:36.750Z,24.21
2019-06-26T18:32:42.070Z,24.16
2019-06-26T18:35:47.332Z,23.98
2019-06-26T18:38:52.613Z,23.91
2019-06-26T18:41:57.838Z,23.94
2019-06-26T18:45:03.032Z,23.74
2019-06-26T18:48:08.524Z,23.58
2019-06-26T18:51:13.845Z,23.43
2019-06-26T18:54:19.188Z,23.25
2019-06-26T18:57:25.588Z,23.08
2019-06-26T19:00:30.784Z,22.79
2019-06-26T19:03:36.029Z,22.60
2019-06-26T19:06:41.352Z,22.49
2019-06-26T19:09:47.018Z,22.47
2019-06-26T19:12:52.256Z,22.32
2019-06-26T19:15:59.654Z,22.07
2019-06-26T19:19:04.890Z,21.91
2019-06-26T19:22:10.110Z,21.72
2019-06-26T19:25:15.331Z,21.57
2019-06-26T19:28:23.134Z,21.45
2019-06-26T19:31:27.598Z,21.27
2019-06-26T19:34:32.820Z,21.15
2019-06-26T19:37:38.119Z,21.25
2019-06-26T19:40:44.808Z,21.14
2019-06-26T19:43:50.062Z,20.83
2019-06-26T19:46:55.259Z,20.50
2019-06-26T19:50:00.536Z,20.37
2019-06-26T19:53:05.811Z,20.33
2019-06-26T19:56:12.474Z,20.15
2019-06-26T19:59:17.655Z,19.97
2019-06-26T20:02:22.850Z,19.85
2019-06-26T20:05:28.142Z,19.75
2019-06-26T20:08:33.369Z,19.72
2019-06-26T20:11:38.565Z,19.47
2019-06-26T20:14:43.768Z,19.40
2019-06-26T20:17:49.013Z,19.26
2019-06-26T20:20:55.553Z,19.44
2019-06-26T20:24:00.790Z,19.41
2019-06-26T20:27:05.993Z,19.08
2019-06-26T20:30:11.730Z,18.94
2019-06-26T20:33:17.118Z,19.03
2019-06-26T20:36:22.416Z,18.97
2019-06-26T20:39:29.958Z,18.80
2019-06-26T20:42:35.125Z,18.65
2019-06-26T20:45:40.396Z,18.39
2019-06-26T20:48:45.591Z,18.19
2019-06-26T20:51:50.868Z,18.21
2019-06-26T20:55:01.397Z,18.06
2019-06-26T20:58:02.920Z,17.95
2019-06-26T21:01:08.193Z,17.85
2019-06-26T21:04:15.109Z,17.76
2019-06-26T21:07:21.995Z,17.79
2019-06-26T21:10:27.169Z,17.53
2019-06-26T21:13:32.327Z,17.39
2019-06-26T21:16:37.480Z,17.28
2019-06-26T21:19:42.737Z,17.21
2019-06-26T21:22:47.959Z,16.94
2019-06-26T21:25:53.231Z,16.80
2019-06-26T21:29:00.868Z,16.67
2019-06-26T21:32:06.288Z,16.64
2019-06-26T21:35:11.750Z,16.51
2019-06-26T21:38:16.948Z,16.35
2019-06-26T21:41:23.270Z,16.27
2019-06-26T21:44:28.815Z,16.27
2019-06-26T21:47:35.143Z,16.07
2019-06-26T21:50:40.408Z,16.01
2019-06-26T21:53:45.653Z,16.02
2019-06-26T21:57:09.444Z,15.84
2019-06-26T22:00:34.575Z,15.76
2019-06-26T22:03:57.639Z,15.80
2019-06-26T22:07:04.454Z,15.70
2019-06-26T22:10:15.614Z,15.77
2019-06-26T22:13:20.864Z,15.72
2019-06-26T22:16:26.205Z,15.57
2019-06-26T22:19:32.424Z,15.70
2019-06-26T22:22:37.632Z,15.58
2019-06-26T22:25:50.778Z,15.54
2019-06-26T22:28:49.829Z,15.48
2019-06-26T22:31:55.105Z,15.48
2019-06-26T22:35:00.434Z,15.39
2019-06-26T22:38:08.076Z,15.43
2019-06-26T22:41:13.288Z,15.53
2019-06-26T22:44:18.454Z,15.54
2019-06-26T22:47:24.503Z,15.58
2019-06-26T22:50:31.010Z,15.40
2019-06-26T22:53:36.409Z,15.31
2019-06-26T22:56:43.782Z,15.33
2019-06-26T22:59:49.027Z,15.28
2019-06-26T23:02:54.354Z,15.36
2019-06-26T23:05:59.905Z,15.31
2019-06-26T23:09:08.166Z,15.42
2019-06-26T23:12:13.457Z,15.37
2019-06-26T23:15:18.915Z,15.38
2019-06-26T23:18:27.880Z,15.48
2019-06-26T23:21:33.255Z,15.48
2019-06-26T23:24:41.799Z,15.45
2019-06-26T23:27:48.247Z,15.46
2019-06-26T23:30:53.420Z,15.73
2019-06-26T23:33:59.304Z,15.66
2019-06-26T23:37:05.507Z,15.61
2019-06-26T23:40:11.154Z,15.88
2019-06-26T23:43:17.785Z,15.72
2019-06-26T23:46:22.996Z,15.68
2019-06-26T23:49:28.256Z,15.58
2019-06-26T23:52:34.950Z,15.62
2019-06-26T23:55:40.182Z,15.70
2019-06-26T23:58:45.507Z,15.54
